Time;durP1;ratioP1;P1;durP2;ratioP2;P2;SDS_P1;SDS_P2;PMS_P1;PMS_P2;Temp;Humidity;BMP_temperature;BMP_pressure;BME280_temperature;BME280_humidity;BME280_pressure;Samples;Min_cycle;Max_cycle;Signal;HPM_P1;HPM_P2
2023/02/17 00:00:59;;;;;;;40.00;23.37;;;7.00;99.90;;;;;;4971169;28;20631;-84
2023/02/17 00:03:27;;;;;;;40.80;23.47;;;7.00;99.90;;;;;;4976071;28;20212;-82
2023/02/17 00:05:53;;;;;;;38.53;23.40;;;7.00;99.90;;;;;;4976360;28;20176;-85
2023/02/17 00:08:19;;;;;;;38.73;23.23;;;7.00;99.90;;;;;;4975590;28;20180;-86
2023/02/17 00:10:44;;;;;;;38.13;23.37;;;7.00;99.90;;;;;;4975693;28;20705;-79
2023/02/17 00:13:10;;;;;;;40.83;23.03;;;7.00;99.90;;;;;;4975985;28;20188;-81
2023/02/17 00:15:39;;;;;;;42.57;24.13;;;7.00;99.90;;;;;;4974655;28;20173;-79
2023/02/17 00:18:05;;;;;;;37.63;23.00;;;7.10;99.90;;;;;;4974796;28;20618;-82
2023/02/17 00:20:30;;;;;;;35.93;23.07;;;7.00;99.90;;;;;;4975795;28;20230;-89
2023/02/17 00:22:56;;;;;;;35.00;23.20;;;7.10;99.90;;;;;;4976037;28;20251;-89
2023/02/17 00:25:22;;;;;;;39.90;23.63;;;7.20;99.90;;;;;;4974754;28;20616;-86
2023/02/17 00:27:47;;;;;;;37.10;22.77;;;7.30;99.90;;;;;;4975945;28;20180;-84
2023/02/17 00:30:13;;;;;;;36.87;23.40;;;7.30;99.90;;;;;;4965827;28;20200;-85
2023/02/17 00:32:40;;;;;;;35.73;21.83;;;7.30;99.90;;;;;;4954982;29;20196;-85
2023/02/17 00:35:07;;;;;;;41.00;23.80;;;7.30;99.90;;;;;;4955257;28;20345;-85
2023/02/17 00:37:34;;;;;;;35.67;22.13;;;7.30;99.90;;;;;;4956582;28;20344;-85
2023/02/17 00:40:00;;;;;;;36.00;22.57;;;7.30;99.90;;;;;;4954672;28;20232;-84
2023/02/17 00:42:25;;;;;;;34.27;22.00;;;7.30;99.90;;;;;;4955194;29;20185;-85
2023/02/17 00:44:51;;;;;;;39.77;22.57;;;7.30;99.90;;;;;;4955860;28;20512;-85
2023/02/17 00:47:17;;;;;;;34.37;21.03;;;7.40;99.90;;;;;;4954864;28;20181;-87
2023/02/17 00:49:42;;;;;;;33.87;20.67;;;7.40;99.90;;;;;;4955202;29;20618;-88
2023/02/17 00:52:08;;;;;;;34.37;20.77;;;7.40;99.90;;;;;;4955231;29;20590;-88
2023/02/17 00:54:34;;;;;;;33.10;21.20;;;7.40;99.90;;;;;;4955765;28;20605;-90
2023/02/17 00:56:59;;;;;;;34.90;21.40;;;7.40;99.90;;;;;;4955510;29;20291;-87
2023/02/17 00:59:25;;;;;;;37.20;20.53;;;7.40;99.90;;;;;;4955913;28;20260;-83
2023/02/17 01:01:51;;;;;;;30.70;20.67;;;7.50;99.90;;;;;;4956009;28;20177;-85
2023/02/17 01:04:19;;;;;;;32.03;20.63;;;7.50;99.90;;;;;;4955111;29;20224;-91
2023/02/17 01:06:44;;;;;;;31.37;20.13;;;7.50;99.90;;;;;;4955073;29;20177;-83
2023/02/17 01:09:13;;;;;;;29.63;19.33;;;7.50;99.90;;;;;;4955075;29;20533;-90
2023/02/17 01:11:39;;;;;;;28.43;20.00;;;7.60;99.90;;;;;;4956516;28;20209;-89
2023/02/17 01:14:06;;;;;;;30.40;19.63;;;7.60;99.90;;;;;;4955437;28;20232;-82
2023/02/17 01:16:37;;;;;;;32.83;19.60;;;7.60;99.90;;;;;;4955374;28;20684;-89
2023/02/17 01:19:08;;;;;;;30.83;19.10;;;7.60;99.90;;;;;;4956340;28;20177;-89
2023/02/17 01:21:35;;;;;;;35.97;19.90;;;7.60;99.90;;;;;;4955254;29;20192;-88
2023/02/17 01:24:03;;;;;;;29.50;18.73;;;7.60;99.90;;;;;;4955334;29;20661;-83
2023/02/17 01:26:31;;;;;;;31.20;19.17;;;7.60;99.90;;;;;;4956401;28;20173;-90
2023/02/17 01:28:57;;;;;;;29.17;18.67;;;7.70;99.90;;;;;;4956088;28;20185;-81
2023/02/17 01:31:25;;;;;;;28.73;18.17;;;7.70;99.90;;;;;;4972110;28;20283;-86
2023/02/17 01:33:55;;;;;;;31.87;18.97;;;7.70;99.90;;;;;;4975414;28;20175;-91
2023/02/17 01:36:21;;;;;;;26.67;17.77;;;7.70;99.90;;;;;;4974969;28;20573;-92
2023/02/17 01:38:48;;;;;;;26.00;17.33;;;7.70;99.90;;;;;;4975437;28;20935;-84
2023/02/17 01:41:17;;;;;;;30.53;18.83;;;7.70;99.90;;;;;;4974052;28;20191;-83
2023/02/17 01:44:09;;;;;;;28.50;17.70;;;7.70;99.90;;;;;;4974645;28;20231;-84
2023/02/17 01:46:36;;;;;;;24.87;17.20;;;7.80;99.90;;;;;;4974755;28;20244;-84
2023/02/17 01:49:17;;;;;;;23.47;16.13;;;7.80;99.90;;;;;;4973547;28;20542;-83
2023/02/17 01:51:48;;;;;;;26.23;17.20;;;7.90;99.90;;;;;;4974203;28;20301;-84
2023/02/17 01:54:19;;;;;;;23.87;16.67;;;7.90;99.90;;;;;;4977688;28;20185;-82
2023/02/17 01:56:47;;;;;;;27.43;17.63;;;7.90;99.90;;;;;;4978787;28;20255;-86
2023/02/17 01:59:21;;;;;;;25.27;17.03;;;7.90;99.90;;;;;;4976445;28;20188;-85
2023/02/17 02:01:49;;;;;;;25.57;16.77;;;7.90;99.90;;;;;;4957537;28;20181;-84
2023/02/17 02:04:17;;;;;;;24.03;16.27;;;7.90;99.90;;;;;;4957980;28;20185;-83
2023/02/17 02:06:44;;;;;;;24.93;16.60;;;7.90;99.90;;;;;;4959334;28;20220;-86
2023/02/17 02:09:17;;;;;;;22.83;15.80;;;8.00;99.90;;;;;;4957983;28;20200;-84
2023/02/17 02:11:43;;;;;;;27.77;16.73;;;8.00;99.90;;;;;;4959267;28;20234;-83
2023/02/17 02:14:10;;;;;;;24.30;16.20;;;8.00;99.90;;;;;;4959227;28;20605;-89
2023/02/17 02:16:44;;;;;;;23.70;16.70;;;8.00;99.90;;;;;;4958876;28;20175;-84
2023/02/17 02:19:19;;;;;;;26.67;16.83;;;8.00;99.90;;;;;;4957745;28;20517;-81
2023/02/17 02:22:34;;;;;;;24.80;16.43;;;8.00;99.90;;;;;;4957438;28;20267;-87
2023/02/17 02:25:13;;;;;;;22.23;15.47;;;8.00;99.90;;;;;;4957423;28;20647;-82
2023/02/17 02:28:01;;;;;;;21.90;15.43;;;8.10;99.90;;;;;;4958042;28;20177;-84
2023/02/17 02:30:48;;;;;;;27.73;16.43;;;8.00;99.90;;;;;;4957012;28;20189;-84
2023/02/17 02:33:44;;;;;;;25.07;16.63;;;8.10;99.90;;;;;;4958167;28;20173;-79
2023/02/17 02:36:32;;;;;;;26.30;16.07;;;8.10;99.90;;;;;;4957471;28;20203;-85
2023/02/17 02:39:31;;;;;;;22.57;15.10;;;8.10;99.90;;;;;;4957081;28;20525;-84
2023/02/17 02:42:03;;;;;;;26.37;16.27;;;8.10;99.90;;;;;;4950807;28;20202;-82
2023/02/17 02:44:29;;;;;;;23.87;16.40;;;8.10;99.90;;;;;;4956863;28;20240;-84
2023/02/17 02:46:59;;;;;;;24.97;16.57;;;8.00;99.90;;;;;;4957379;29;20174;-84
2023/02/17 02:49:26;;;;;;;24.40;16.80;;;8.00;99.90;;;;;;4957240;29;20181;-83
2023/02/17 02:52:14;;;;;;;27.57;16.80;;;8.00;99.90;;;;;;4957155;28;20217;-87
2023/02/17 02:55:05;;;;;;;25.93;16.47;;;8.00;99.90;;;;;;4957075;28;20256;-84
2023/02/17 02:57:49;;;;;;;25.60;16.67;;;8.00;99.90;;;;;;4956879;28;20184;-85
2023/02/17 03:00:36;;;;;;;23.33;16.20;;;8.00;99.90;;;;;;4956769;28;20324;-83
2023/02/17 03:03:28;;;;;;;27.43;16.53;;;8.00;99.90;;;;;;4957611;28;20173;-86
2023/02/17 03:06:15;;;;;;;27.13;17.40;;;8.00;99.90;;;;;;4952582;28;20196;-85
2023/02/17 03:08:47;;;;;;;26.47;16.83;;;7.90;99.90;;;;;;4957188;28;20177;-91
2023/02/17 03:11:14;;;;;;;28.33;17.53;;;7.90;99.90;;;;;;4957842;28;20231;-84
2023/02/17 03:13:39;;;;;;;25.37;16.50;;;7.90;99.90;;;;;;4956575;28;20184;-84
2023/02/17 03:16:07;;;;;;;28.10;16.43;;;7.90;99.90;;;;;;4957741;28;20177;-84
2023/02/17 03:18:34;;;;;;;25.77;16.80;;;7.90;99.90;;;;;;4957798;28;20177;-83
2023/02/17 03:21:11;;;;;;;26.23;16.80;;;8.00;99.90;;;;;;4957470;28;20173;-82
2023/02/17 03:23:36;;;;;;;26.27;17.83;;;8.00;99.90;;;;;;4956964;28;20181;-84
2023/02/17 03:26:03;;;;;;;30.13;18.17;;;8.00;99.90;;;;;;4956859;29;20292;-84
2023/02/17 03:28:30;;;;;;;28.10;18.43;;;7.90;99.90;;;;;;4956629;28;20173;-83
2023/02/17 03:30:55;;;;;;;29.07;18.70;;;8.00;99.90;;;;;;4957560;28;20208;-80
2023/02/17 03:33:21;;;;;;;25.07;18.57;;;7.90;99.90;;;;;;4955779;29;20272;-86
2023/02/17 03:35:47;;;;;;;25.83;18.00;;;7.90;99.90;;;;;;4957281;28;20264;-83
2023/02/17 03:38:13;;;;;;;29.57;18.80;;;7.90;99.90;;;;;;5294768;23;20589;-92
2023/02/17 03:40:39;;;;;;;29.77;18.30;;;7.90;99.90;;;;;;4925272;29;20194;-93
2023/02/17 03:43:05;;;;;;;27.23;18.17;;;7.80;99.90;;;;;;4955614;29;20189;-95
2023/02/17 03:45:30;;;;;;;27.97;18.90;;;7.90;99.90;;;;;;4956337;29;20284;-86
2023/02/17 03:47:56;;;;;;;28.63;18.43;;;7.90;99.90;;;;;;4941354;29;20205;-95
2023/02/17 03:50:26;;;;;;;27.47;18.80;;;7.90;99.90;;;;;;4955577;28;20186;-94
2023/02/17 03:52:52;;;;;;;27.73;18.33;;;7.80;99.90;;;;;;4941436;29;20174;-94
2023/02/17 03:55:17;;;;;;;28.77;18.10;;;7.80;99.90;;;;;;4956569;29;20197;-95
2023/02/17 03:57:43;;;;;;;24.93;17.57;;;7.90;99.90;;;;;;4941700;29;20545;-92
2023/02/17 04:00:09;;;;;;;25.80;17.57;;;7.90;99.90;;;;;;4954096;29;20217;-84
2023/02/17 04:02:35;;;;;;;29.10;18.23;;;7.90;99.90;;;;;;4952920;29;20231;-88
2023/02/17 04:05:01;;;;;;;24.90;17.07;;;7.90;99.90;;;;;;4937973;29;20229;-92
2023/02/17 04:07:27;;;;;;;26.50;17.73;;;7.90;99.90;;;;;;4953090;28;20185;-87
2023/02/17 04:10:00;;;;;;;28.63;17.47;;;7.90;99.90;;;;;;4952487;29;20617;-86
2023/02/17 04:12:25;;;;;;;29.50;17.50;;;7.90;99.90;;;;;;4952942;29;20218;-86
2023/02/17 04:14:51;;;;;;;23.40;16.67;;;7.90;99.90;;;;;;4952279;28;20192;-93
2023/02/17 04:17:17;;;;;;;24.73;16.90;;;7.90;99.90;;;;;;4936963;29;20273;-84
2023/02/17 04:19:44;;;;;;;23.73;16.30;;;8.00;99.90;;;;;;4936617;29;20552;-86
2023/02/17 04:22:10;;;;;;;31.30;17.23;;;8.00;99.90;;;;;;4952800;29;20188;-85
2023/02/17 04:24:36;;;;;;;22.53;15.87;;;8.00;99.90;;;;;;4952471;29;20276;-89
2023/02/17 04:27:05;;;;;;;26.00;16.87;;;8.00;99.90;;;;;;4952742;29;20185;-86
2023/02/17 04:29:32;;;;;;;27.13;16.50;;;8.00;99.90;;;;;;4936770;29;20217;-89
2023/02/17 04:31:58;;;;;;;24.17;16.03;;;8.00;99.90;;;;;;4952714;29;20209;-85
2023/02/17 04:34:23;;;;;;;22.73;16.87;;;8.00;99.90;;;;;;4937589;29;20174;-90
2023/02/17 04:36:49;;;;;;;22.40;16.67;;;8.00;99.90;;;;;;4952681;29;20577;-86
2023/02/17 04:39:15;;;;;;;24.63;16.50;;;8.00;99.90;;;;;;4951750;28;20233;-83
2023/02/17 04:41:41;;;;;;;24.83;17.03;;;8.00;99.90;;;;;;4924789;29;20194;-89
2023/02/17 04:44:06;;;;;;;25.33;16.93;;;8.10;99.90;;;;;;4916477;29;20184;-87
2023/02/17 04:46:32;;;;;;;24.30;15.73;;;8.10;99.90;;;;;;4918234;29;20194;-93
2023/02/17 04:48:58;;;;;;;22.73;16.27;;;8.00;99.90;;;;;;4917567;29;20194;-85
2023/02/17 04:51:23;;;;;;;21.80;16.57;;;8.00;99.90;;;;;;4919113;29;20232;-91
2023/02/17 04:53:49;;;;;;;23.73;16.87;;;8.00;99.90;;;;;;4919683;29;20183;-92
2023/02/17 04:56:15;;;;;;;23.23;16.10;;;8.00;99.90;;;;;;4920178;29;20247;-86
2023/02/17 04:58:41;;;;;;;23.37;15.67;;;8.10;99.90;;;;;;4917629;29;20187;-85
2023/02/17 05:01:09;;;;;;;22.00;15.67;;;8.10;99.90;;;;;;4918106;29;20562;-85
2023/02/17 05:03:34;;;;;;;22.87;15.73;;;8.20;99.90;;;;;;4920382;29;20180;-91
2023/02/17 05:06:00;;;;;;;21.47;15.23;;;8.10;99.90;;;;;;4921534;29;20245;-87
2023/02/17 05:08:25;;;;;;;24.07;16.90;;;8.20;99.90;;;;;;4920541;29;20187;-94
2023/02/17 05:10:54;;;;;;;21.80;15.17;;;8.10;99.90;;;;;;4919545;29;20221;-93
2023/02/17 05:13:20;;;;;;;21.47;15.73;;;8.20;99.90;;;;;;4936788;29;20182;-90
2023/02/17 05:15:46;;;;;;;21.60;14.90;;;8.10;99.90;;;;;;4920477;29;20637;-91
2023/02/17 05:18:12;;;;;;;22.00;15.97;;;8.10;99.90;;;;;;4920469;29;20611;-92
2023/02/17 05:20:40;;;;;;;21.37;15.03;;;8.10;99.90;;;;;;4920743;29;20190;-95
2023/02/17 05:23:05;;;;;;;23.00;16.47;;;8.10;99.90;;;;;;4936137;29;20182;-96
2023/02/17 05:25:32;;;;;;;22.57;15.30;;;8.10;99.90;;;;;;4920299;29;20254;-94
2023/02/17 05:27:57;;;;;;;22.17;15.90;;;8.20;99.90;;;;;;4923091;29;20224;-91
2023/02/17 05:30:24;;;;;;;22.77;16.10;;;8.10;99.90;;;;;;4922751;29;20179;-92
2023/02/17 05:32:50;;;;;;;21.07;15.10;;;8.10;99.90;;;;;;4922927;29;20305;-90
2023/02/17 05:35:15;;;;;;;21.73;15.93;;;8.10;99.90;;;;;;4922704;29;20201;-95
2023/02/17 05:37:41;;;;;;;22.17;16.30;;;8.10;99.90;;;;;;4923119;29;20255;-95
2023/02/17 05:40:10;;;;;;;25.23;16.23;;;8.10;99.90;;;;;;4922539;29;20190;-93
2023/02/17 05:42:36;;;;;;;23.90;17.13;;;8.10;99.90;;;;;;4922376;29;20210;-90
2023/02/17 05:45:03;;;;;;;23.37;16.87;;;8.10;99.90;;;;;;4921472;29;20218;-84
2023/02/17 05:47:28;;;;;;;22.47;16.63;;;8.10;99.90;;;;;;4938951;29;20201;-83
2023/02/17 05:49:55;;;;;;;25.40;17.30;;;8.10;99.90;;;;;;4942040;29;20190;-90
2023/02/17 05:52:21;;;;;;;24.93;16.83;;;8.10;99.90;;;;;;4956605;29;20232;-91
2023/02/17 05:54:46;;;;;;;25.13;17.63;;;8.10;99.90;;;;;;4941102;29;20190;-95
2023/02/17 05:57:12;;;;;;;25.90;17.83;;;8.10;99.90;;;;;;4957691;29;20328;-94
2023/02/17 05:59:38;;;;;;;23.83;17.13;;;8.10;99.90;;;;;;4956926;29;20194;-91
2023/02/17 06:02:03;;;;;;;24.33;16.33;;;8.10;99.90;;;;;;4957151;29;20569;-94
2023/02/17 06:04:29;;;;;;;24.17;16.97;;;8.10;99.90;;;;;;4940954;29;20585;-94
2023/02/17 06:06:55;;;;;;;22.80;16.93;;;8.20;99.90;;;;;;4957138;29;20185;-93
2023/02/17 06:09:20;;;;;;;21.60;16.23;;;8.20;99.90;;;;;;4956921;28;20261;-95
2023/02/17 06:11:46;;;;;;;25.10;17.30;;;8.20;99.90;;;;;;4956302;29;20228;-94
2023/02/17 06:14:12;;;;;;;23.53;16.80;;;8.10;99.90;;;;;;4956348;29;20189;-94
2023/02/17 06:16:37;;;;;;;25.67;17.17;;;8.10;99.90;;;;;;4955909;29;20194;-86
2023/02/17 06:19:04;;;;;;;27.63;17.67;;;8.10;99.90;;;;;;4941818;29;20213;-87
2023/02/17 06:21:31;;;;;;;25.13;17.40;;;8.10;99.90;;;;;;4956031;28;20201;-87
2023/02/17 06:23:56;;;;;;;24.70;18.40;;;8.10;99.90;;;;;;4956582;29;20178;-91
2023/02/17 06:26:22;;;;;;;24.90;17.23;;;8.10;99.90;;;;;;4956036;28;20189;-88
2023/02/17 06:28:48;;;;;;;27.57;18.40;;;8.10;99.90;;;;;;4955657;28;20218;-90
2023/02/17 06:31:14;;;;;;;24.63;17.80;;;8.10;99.90;;;;;;4955269;28;20222;-91
2023/02/17 06:33:39;;;;;;;23.43;17.20;;;8.10;99.90;;;;;;4955766;29;20182;-89
2023/02/17 06:36:05;;;;;;;27.90;18.23;;;8.10;99.90;;;;;;4940872;29;20185;-92
2023/02/17 06:38:31;;;;;;;27.80;18.17;;;8.10;99.90;;;;;;4937918;29;20900;-91
2023/02/17 06:40:58;;;;;;;24.17;17.03;;;8.10;99.90;;;;;;4939844;29;20186;-92
2023/02/17 06:43:24;;;;;;;29.37;17.03;;;8.10;99.90;;;;;;4956042;29;20249;-95
2023/02/17 06:45:49;;;;;;;30.90;17.57;;;8.20;99.90;;;;;;4940080;29;20897;-92
2023/02/17 06:48:15;;;;;;;22.20;16.13;;;8.20;99.90;;;;;;4956198;28;20192;-94
2023/02/17 06:50:45;;;;;;;26.20;18.40;;;8.20;99.90;;;;;;4955680;29;20197;-92
2023/02/17 06:53:10;;;;;;;24.73;16.90;;;8.20;99.90;;;;;;4939564;29;20181;-85
2023/02/17 06:55:37;;;;;;;23.27;16.33;;;8.10;99.90;;;;;;4940812;29;20182;-93
2023/02/17 06:58:03;;;;;;;23.97;16.83;;;8.20;99.90;;;;;;4955508;29;20182;-89
2023/02/17 07:00:34;;;;;;;24.53;16.27;;;8.20;99.90;;;;;;4939845;29;20621;-88
2023/02/17 07:03:00;;;;;;;21.27;15.77;;;8.20;99.90;;;;;;4940117;29;20502;-86
2023/02/17 07:05:26;;;;;;;22.00;15.93;;;8.20;99.90;;;;;;4940256;29;20178;-89
2023/02/17 07:07:52;;;;;;;20.00;14.97;;;8.20;99.90;;;;;;4955246;29;20194;-87
2023/02/17 07:10:26;;;;;;;20.77;14.87;;;8.30;99.90;;;;;;4955264;29;20511;-88
2023/02/17 07:12:52;;;;;;;23.90;15.27;;;8.30;99.90;;;;;;4955523;29;20221;-90
2023/02/17 07:15:17;;;;;;;22.43;14.97;;;8.30;99.90;;;;;;4955138;29;20641;-90
2023/02/17 07:17:43;;;;;;;25.83;14.90;;;8.30;99.90;;;;;;4955335;28;20190;-90
2023/02/17 07:20:11;;;;;;;19.27;13.97;;;8.40;99.90;;;;;;4954697;29;20190;-92
2023/02/17 07:22:37;;;;;;;20.30;14.23;;;8.40;99.90;;;;;;4954543;29;20208;-93
2023/02/17 07:25:04;;;;;;;18.57;13.90;;;8.50;99.90;;;;;;4939293;29;20669;-89
2023/02/17 07:27:30;;;;;;;19.67;13.57;;;8.50;99.90;;;;;;4954014;28;20186;-87
2023/02/17 07:29:56;;;;;;;20.00;14.20;;;8.60;99.90;;;;;;4954082;28;20268;-92
2023/02/17 07:32:28;;;;;;;19.67;14.73;;;8.70;99.90;;;;;;4953807;28;20214;-92
2023/02/17 07:34:54;;;;;;;19.13;14.70;;;8.80;99.90;;;;;;4938813;29;20174;-90
2023/02/17 07:37:20;;;;;;;20.42;14.45;;;8.90;99.90;;;;;;4953724;29;20185;-81
2023/02/17 07:39:47;;;;;;;19.20;14.53;;;9.00;99.90;;;;;;4938765;29;20233;-89
2023/02/17 07:42:13;;;;;;;17.17;14.00;;;9.20;99.90;;;;;;4935733;29;20598;-87
2023/02/17 07:44:39;;;;;;;17.00;13.40;;;9.20;99.90;;;;;;4935185;29;20185;-86
2023/02/17 07:47:05;;;;;;;20.33;14.80;;;9.30;99.90;;;;;;4936490;29;20536;-83
2023/02/17 07:49:30;;;;;;;18.85;14.10;;;9.30;99.90;;;;;;4936058;29;20509;-84
2023/02/17 07:51:58;;;;;;;18.65;14.32;;;9.30;99.90;;;;;;4938051;29;20276;-87
2023/02/17 07:54:23;;;;;;;18.88;14.95;;;9.40;99.90;;;;;;4937295;29;20181;-89
2023/02/17 07:56:49;;;;;;;19.33;14.80;;;9.40;99.90;;;;;;4953747;28;20186;-89
2023/02/17 07:59:15;;;;;;;20.27;14.80;;;9.30;99.90;;;;;;4937411;29;20178;-84
2023/02/17 08:01:41;;;;;;;22.33;14.75;;;9.40;99.90;;;;;;4937085;29;20592;-88
2023/02/17 08:04:07;;;;;;;20.52;15.15;;;9.40;99.90;;;;;;4938816;29;20170;-91
2023/02/17 08:06:32;;;;;;;20.70;15.20;;;9.40;99.90;;;;;;4953030;28;20192;-90
2023/02/17 08:14:29;;;;;;;22.42;15.10;;;9.50;99.90;;;;;;4938670;29;20593;-87
2023/02/17 08:16:56;;;;;;;20.15;15.38;;;9.50;99.90;;;;;;4952007;28;20261;-86
2023/02/17 08:19:21;;;;;;;20.13;15.60;;;9.50;99.90;;;;;;4952586;28;20218;-90
2023/02/17 08:21:48;;;;;;;19.77;14.60;;;9.60;99.90;;;;;;4952647;28;20205;-86
2023/02/17 08:24:15;;;;;;;22.40;15.10;;;9.60;99.90;;;;;;4937482;29;20209;-82
2023/02/17 08:26:41;;;;;;;19.13;14.53;;;9.70;99.90;;;;;;4936907;29;20174;-87
2023/02/17 08:29:07;;;;;;;18.43;14.30;;;9.70;99.90;;;;;;4951594;28;20229;-87
2023/02/17 08:31:35;;;;;;;16.55;13.48;;;9.80;99.90;;;;;;4951554;28;20221;-86
2023/02/17 08:34:04;;;;;;;17.02;12.82;;;9.80;99.90;;;;;;4937124;29;20217;-85
2023/02/17 08:36:29;;;;;;;17.08;13.05;;;9.80;99.90;;;;;;4951898;28;20622;-86
2023/02/17 08:38:56;;;;;;;17.13;12.50;;;9.80;99.90;;;;;;4937502;29;20285;-87
2023/02/17 08:41:27;;;;;;;15.43;12.18;;;9.90;99.90;;;;;;4936607;29;20178;-87
2023/02/17 08:43:53;;;;;;;16.13;11.30;;;9.90;99.90;;;;;;4936046;29;20181;-87
2023/02/17 08:46:21;;;;;;;13.88;11.23;;;10.00;99.90;;;;;;4952934;28;20189;-81
2023/02/17 08:48:47;;;;;;;15.18;11.23;;;10.10;99.90;;;;;;4937841;29;20202;-86
2023/02/17 08:51:22;;;;;;;13.50;10.70;;;10.10;99.90;;;;;;4937016;29;20202;-91
2023/02/17 08:53:49;;;;;;;12.65;10.38;;;10.10;99.90;;;;;;4936943;29;20158;-91
2023/02/17 08:56:15;;;;;;;15.38;10.00;;;10.20;99.90;;;;;;4937732;29;20174;-90
2023/02/17 08:58:41;;;;;;;12.85;9.80;;;10.30;99.90;;;;;;4952334;29;20182;-90
2023/02/17 09:01:07;;;;;;;11.18;9.25;;;10.30;99.90;;;;;;4936505;29;20186;-91
2023/02/17 09:03:39;;;;;;;13.07;10.38;;;10.30;99.90;;;;;;4952097;29;20177;-88
2023/02/17 09:06:05;;;;;;;11.05;9.18;;;10.30;99.90;;;;;;4951800;29;20265;-88
2023/02/17 09:08:31;;;;;;;12.55;9.38;;;10.30;99.90;;;;;;4935526;29;20197;-85
2023/02/17 09:10:57;;;;;;;13.20;9.45;;;10.30;99.90;;;;;;4936669;29;20205;-86
2023/02/17 09:13:23;;;;;;;13.07;9.50;;;10.30;99.90;;;;;;4951464;29;20197;-87
2023/02/17 09:15:52;;;;;;;9.70;8.43;;;10.40;99.90;;;;;;4936475;29;20178;-88
2023/02/17 09:18:21;;;;;;;11.65;8.98;;;10.40;99.90;;;;;;4951468;29;20638;-88
2023/02/17 09:20:47;;;;;;;10.57;8.82;;;10.40;99.90;;;;;;4936724;29;20178;-87
2023/02/17 09:23:13;;;;;;;9.57;8.13;;;10.50;99.90;;;;;;4951461;29;20184;-83
2023/02/17 09:25:39;;;;;;;10.80;8.77;;;10.50;99.90;;;;;;4952158;29;20170;-89
2023/02/17 09:28:05;;;;;;;10.63;8.73;;;10.50;99.90;;;;;;4935942;29;20270;-84
2023/02/17 09:30:31;;;;;;;12.07;8.23;;;10.40;99.90;;;;;;4951888;28;20196;-88
2023/02/17 09:32:58;;;;;;;12.15;9.35;;;10.40;99.90;;;;;;4935731;29;20186;-87
2023/02/17 09:35:25;;;;;;;11.73;9.27;;;10.50;99.90;;;;;;4937154;29;20170;-84
2023/02/17 09:37:51;;;;;;;11.07;8.52;;;10.60;99.90;;;;;;4937059;29;20181;-81
2023/02/17 09:40:42;;;;;;;10.82;8.57;;;10.50;99.90;;;;;;4937502;29;20162;-89
2023/02/17 09:43:14;;;;;;;9.88;8.55;;;10.50;99.90;;;;;;4941675;28;20233;-83
2023/02/17 09:45:42;;;;;;;9.90;7.63;;;10.60;99.90;;;;;;4935159;29;20194;-90
2023/02/17 09:48:12;;;;;;;9.85;8.00;;;10.60;99.90;;;;;;4936515;29;20189;-84
2023/02/17 09:51:09;;;;;;;11.23;8.52;;;10.70;99.90;;;;;;4934823;29;20640;-84
2023/02/17 09:53:47;;;;;;;11.25;7.97;;;10.70;99.90;;;;;;4951516;28;20240;-86
2023/02/17 09:56:19;;;;;;;11.57;8.20;;;10.70;99.90;;;;;;4937031;29;20217;-87
2023/02/17 09:58:53;;;;;;;10.45;8.30;;;10.80;99.90;;;;;;4937275;29;20590;-88
2023/02/17 10:01:22;;;;;;;11.02;7.97;;;10.70;99.90;;;;;;4951667;29;20687;-83
2023/02/17 10:04:14;;;;;;;8.30;7.43;;;10.80;99.90;;;;;;4952044;29;20186;-87
2023/02/17 10:06:47;;;;;;;9.90;7.53;;;10.80;99.90;;;;;;4941040;28;20580;-91
2023/02/17 10:09:27;;;;;;;9.70;7.43;;;10.80;99.90;;;;;;4951798;28;20174;-83
2023/02/17 10:12:24;;;;;;;12.30;7.43;;;10.80;99.90;;;;;;4951717;28;20656;-86
2023/02/17 10:15:22;;;;;;;7.43;6.63;;;10.90;99.90;;;;;;4932290;29;20292;-87
2023/02/17 10:18:06;;;;;;;10.30;6.32;;;10.90;99.90;;;;;;4952111;29;20202;-87
2023/02/17 10:20:54;;;;;;;8.13;6.53;;;11.00;99.90;;;;;;4940245;29;20241;-88
2023/02/17 10:23:24;;;;;;;11.00;7.15;;;11.00;99.90;;;;;;4939553;29;20173;-89
2023/02/17 10:26:16;;;;;;;8.93;6.47;;;11.00;99.90;;;;;;4955216;29;20232;-83
2023/02/17 10:28:54;;;;;;;8.13;6.50;;;11.00;99.90;;;;;;4955234;29;20180;-88
2023/02/17 10:31:45;;;;;;;8.68;6.60;;;11.00;99.90;;;;;;4954623;28;20222;-90
2023/02/17 10:34:29;;;;;;;8.32;6.63;;;11.00;99.90;;;;;;4940731;29;20198;-89
2023/02/17 10:37:02;;;;;;;7.93;6.50;;;11.10;99.90;;;;;;4955634;28;20237;-84
2023/02/17 10:39:48;;;;;;;8.85;6.97;;;11.10;99.90;;;;;;4953884;29;20764;-81
2023/02/17 10:42:23;;;;;;;9.40;6.82;;;11.10;99.90;;;;;;4954048;29;20265;-91
2023/02/17 10:44:53;;;;;;;7.63;6.47;;;11.10;99.90;;;;;;4954167;29;20189;-87
2023/02/17 10:47:20;;;;;;;7.82;6.50;;;11.20;99.90;;;;;;4954550;28;20285;-87
2023/02/17 10:49:50;;;;;;;9.35;6.43;;;11.20;99.90;;;;;;4937846;29;20193;-82
2023/02/17 10:52:22;;;;;;;7.82;6.80;;;11.20;99.90;;;;;;4953678;29;20214;-84
2023/02/17 10:55:01;;;;;;;8.02;6.70;;;11.20;99.90;;;;;;4935622;29;20192;-85
2023/02/17 10:57:32;;;;;;;8.20;6.75;;;11.20;99.90;;;;;;4937883;29;20189;-85
2023/02/17 10:59:57;;;;;;;8.57;7.25;;;11.20;99.90;;;;;;4935307;29;20193;-93
2023/02/17 11:02:45;;;;;;;9.07;7.25;;;11.20;99.90;;;;;;4920331;29;20170;-93
2023/02/17 11:05:32;;;;;;;9.20;6.90;;;11.20;99.90;;;;;;4919968;29;20175;-88
2023/02/17 11:08:19;;;;;;;10.77;8.13;;;11.30;99.90;;;;;;4939265;29;20185;-89
2023/02/17 11:10:45;;;;;;;8.73;7.45;;;11.30;99.90;;;;;;4954691;29;20184;-89
2023/02/17 11:13:58;;;;;;;9.13;7.63;;;11.30;99.90;;;;;;4939560;29;20178;-92
2023/02/17 11:16:38;;;;;;;9.48;8.00;;;11.30;99.90;;;;;;4936883;29;20193;-91
2023/02/17 11:19:06;;;;;;;12.95;8.25;;;11.30;99.90;;;;;;4954093;29;20567;-91
2023/02/17 11:21:32;;;;;;;10.35;8.30;;;11.30;99.90;;;;;;4954695;29;20190;-90
2023/02/17 11:24:05;;;;;;;11.40;8.75;;;11.30;99.90;;;;;;4953936;28;20185;-89
2023/02/17 11:26:33;;;;;;;9.68;7.90;;;11.40;99.90;;;;;;4953995;29;20171;-91
2023/02/17 11:29:14;;;;;;;11.25;8.77;;;11.40;99.90;;;;;;4939290;29;20177;-86
2023/02/17 11:31:39;;;;;;;14.07;8.68;;;11.40;99.90;;;;;;4953916;29;20202;-92
2023/02/17 11:34:14;;;;;;;10.98;8.10;;;11.40;99.90;;;;;;4953570;28;20248;-90
2023/02/17 11:36:44;;;;;;;12.90;8.60;;;11.40;99.90;;;;;;4938925;29;20162;-88
2023/02/17 11:39:19;;;;;;;11.52;9.00;;;11.40;99.90;;;;;;4953769;29;20234;-90
2023/02/17 11:41:45;;;;;;;13.50;8.65;;;11.40;99.90;;;;;;4938366;29;20192;-89
2023/02/17 11:44:26;;;;;;;11.18;8.65;;;11.50;99.90;;;;;;4953321;29;20189;-88
2023/02/17 11:47:14;;;;;;;13.60;9.02;;;11.60;99.90;;;;;;4937412;29;20189;-95
2023/02/17 11:50:28;;;;;;;12.00;8.60;;;11.70;99.90;;;;;;4952863;29;20249;-81
2023/02/17 11:53:03;;;;;;;10.90;8.40;;;11.70;99.90;;;;;;4908999;29;20226;-81
2023/02/17 11:55:55;;;;;;;11.98;8.90;;;11.70;99.90;;;;;;4938147;29;20165;-85
2023/02/17 11:58:46;;;;;;;11.38;9.13;;;11.70;99.90;;;;;;4952934;29;20182;-85
2023/02/17 12:01:39;;;;;;;10.55;7.40;;;11.80;99.90;;;;;;4952605;29;20174;-84
2023/02/17 12:04:25;;;;;;;12.15;8.85;;;11.80;99.90;;;;;;4952551;28;20178;-85
2023/02/17 12:07:08;;;;;;;10.63;9.07;;;11.80;99.90;;;;;;4937919;29;20174;-86
2023/02/17 12:09:46;;;;;;;9.25;7.93;;;11.90;99.90;;;;;;4952485;29;20493;-85
2023/02/17 12:12:34;;;;;;;9.88;8.30;;;11.90;99.90;;;;;;4952386;29;20675;-85
2023/02/17 12:15:09;;;;;;;9.63;8.50;;;12.00;99.90;;;;;;4952537;29;20648;-84
2023/02/17 12:17:57;;;;;;;8.90;7.60;;;12.00;99.90;;;;;;4937283;29;20195;-87
2023/02/17 12:20:25;;;;;;;10.45;7.25;;;12.10;99.90;;;;;;4937245;29;20169;-86
2023/02/17 12:23:23;;;;;;;10.32;7.85;;;12.10;99.90;;;;;;4937292;29;20282;-87
2023/02/17 12:25:55;;;;;;;10.43;8.35;;;12.20;99.90;;;;;;4952575;28;20625;-85
2023/02/17 12:28:27;;;;;;;9.32;7.55;;;12.30;99.90;;;;;;4938067;29;20205;-87
2023/02/17 12:31:10;;;;;;;10.48;8.00;;;12.30;99.90;;;;;;4936736;29;20178;-85
2023/02/17 12:33:49;;;;;;;12.40;8.68;;;12.30;99.90;;;;;;4937721;29;20230;-84
2023/02/17 12:36:18;;;;;;;9.18;8.20;;;12.20;99.90;;;;;;4937090;29;20253;-84
2023/02/17 12:39:00;;;;;;;10.95;8.55;;;12.20;99.90;;;;;;4936364;29;20288;-82
2023/02/17 12:41:39;;;;;;;11.38;8.52;;;12.20;99.90;;;;;;4936368;29;20516;-82
2023/02/17 12:44:16;;;;;;;9.45;8.20;;;12.20;99.90;;;;;;4936095;29;20205;-83
2023/02/17 12:46:49;;;;;;;10.48;8.80;;;12.20;99.90;;;;;;4937358;29;20189;-82
2023/02/17 12:49:49;;;;;;;10.50;8.85;;;12.20;99.90;;;;;;4937349;29;20166;-89
2023/02/17 12:52:20;;;;;;;15.73;9.38;;;12.20;99.90;;;;;;4905514;29;20335;-90
2023/02/17 12:54:58;;;;;;;13.68;9.73;;;12.20;99.90;;;;;;4952501;29;20248;-88
2023/02/17 12:57:35;;;;;;;13.35;10.30;;;12.20;99.90;;;;;;4937932;29;20197;-89
2023/02/17 13:00:10;;;;;;;12.18;10.13;;;12.20;99.90;;;;;;4952148;29;20253;-88
2023/02/17 13:02:36;;;;;;;15.70;11.07;;;12.10;99.90;;;;;;4951839;29;20213;-87